createdAt,value
2023-03-29T00:03:10.387Z,39.4
2023-03-29T00:08:10.989Z,39.3
2023-03-29T00:13:11.579Z,39.3
2023-03-29T00:18:12.176Z,39.2
2023-03-29T00:23:12.627Z,39.2
2023-03-29T00:28:13.105Z,39.1
2023-03-29T00:33:14.438Z,39.1
2023-03-29T00:38:14.853Z,39.1
2023-03-29T00:43:15.483Z,39
2023-03-29T00:48:15.913Z,38.9
2023-03-29T00:53:16.356Z,38.9
2023-03-29T00:58:16.794Z,38.9
2023-03-29T01:03:17.255Z,38.8
2023-03-29T01:08:17.829Z,38.7
2023-03-29T01:13:18.253Z,38.7
2023-03-29T01:18:18.698Z,38.7
2023-03-29T01:23:19.110Z,38.6
2023-03-29T01:28:19.679Z,38.6
2023-03-29T01:33:20.125Z,38.6
2023-03-29T01:38:20.717Z,38.5
2023-03-29T01:43:21.139Z,38.5
2023-03-29T01:48:21.566Z,38.4
2023-03-29T01:53:22.943Z,38.4
2023-03-29T01:58:23.397Z,38.3
2023-03-29T02:03:23.923Z,38.3
2023-03-29T02:08:24.428Z,38.2
2023-03-29T02:13:25.764Z,38.2
2023-03-29T02:18:26.208Z,38.2
2023-03-29T02:23:26.647Z,38.1
2023-03-29T02:28:27.099Z,38.1
2023-03-29T02:33:27.510Z,38.1
2023-03-29T02:38:28.013Z,38
2023-03-29T02:43:28.451Z,38
2023-03-29T02:48:28.869Z,37.9
2023-03-29T02:53:29.286Z,37.9
2023-03-29T02:58:29.673Z,37.9
2023-03-29T03:03:30.223Z,37.8
2023-03-29T03:08:30.701Z,37.7
2023-03-29T03:13:31.092Z,37.7
2023-03-29T03:18:31.497Z,37.7
2023-03-29T03:23:31.861Z,37.7
2023-03-29T03:28:32.318Z,37.6
2023-03-29T03:33:32.778Z,37.6
2023-03-29T03:38:33.189Z,37.6
2023-03-29T03:43:33.576Z,37.5
2023-03-29T03:48:33.922Z,37.5
2023-03-29T03:53:34.343Z,37.4
2023-03-29T03:58:34.725Z,37.4
2023-03-29T04:03:36.272Z,37.4
2023-03-29T04:08:36.872Z,37.3
2023-03-29T04:13:37.241Z,37.3
2023-03-29T04:18:37.668Z,37.2
2023-03-29T04:23:38.088Z,37.2
2023-03-29T04:28:38.480Z,37.2
2023-03-29T04:33:38.988Z,37.1
2023-03-29T04:38:39.368Z,37.1
2023-03-29T04:43:40.321Z,37.1
2023-03-29T04:48:40.782Z,37.1
2023-03-29T04:53:41.672Z,37
2023-03-29T04:58:42.079Z,36.9
2023-03-29T05:03:42.761Z,36.9
2023-03-29T05:08:43.289Z,36.4
2023-03-29T05:13:43.644Z,36.2
2023-03-29T05:18:44.129Z,36.2
2023-03-29T05:23:44.644Z,36.1
2023-03-29T05:28:45.252Z,36.1
2023-03-29T05:33:45.642Z,36.1
2023-03-29T05:38:46.142Z,36
2023-03-29T05:43:46.509Z,36
2023-03-29T05:48:46.889Z,35.9
2023-03-29T05:53:47.283Z,35.9
2023-03-29T05:58:47.661Z,35.9
2023-03-29T06:03:48.128Z,35.9
2023-03-29T06:08:48.561Z,35.8
2023-03-29T06:13:48.921Z,35.7
2023-03-29T06:18:49.284Z,35.7
2023-03-29T06:23:49.601Z,35.7
2023-03-29T06:28:52.178Z,35.6
2023-03-29T06:33:52.733Z,35.6
2023-03-29T06:38:53.038Z,35.6
2023-03-29T06:43:53.540Z,35.6
2023-03-29T06:48:53.892Z,35.5
2023-03-29T06:53:54.353Z,35.5
2023-03-29T06:58:55.682Z,35.4
2023-03-29T07:03:56.934Z,35.4
2023-03-29T07:08:57.442Z,35.4
2023-03-29T07:13:57.808Z,35.4
2023-03-29T07:18:58.149Z,35.3
2023-03-29T07:23:58.476Z,35.3
2023-03-29T07:28:58.850Z,34.7
2023-03-29T07:33:59.335Z,34.6
2023-03-29T07:38:59.651Z,34.5
2023-03-29T07:44:00.983Z,34.4
2023-03-29T07:49:02.892Z,34.4
2023-03-29T07:54:03.347Z,34.4
2023-03-29T07:59:03.797Z,34.4
2023-03-29T08:04:04.133Z,34.4
2023-03-29T08:09:04.807Z,34.3
2023-03-29T08:14:06.034Z,34.3
2023-03-29T08:19:06.334Z,34.2
2023-03-29T08:24:07.744Z,34.2
2023-03-29T08:29:08.108Z,34.2
2023-03-29T08:34:08.406Z,34.2
2023-03-29T08:39:09.196Z,34.2
2023-03-29T08:44:09.632Z,34.1
2023-03-29T08:49:10.806Z,34.1
2023-03-29T08:54:11.089Z,34.1
2023-03-29T08:59:11.345Z,34.1
2023-03-29T09:04:12.044Z,34.1
2023-03-29T09:09:12.336Z,34
2023-03-29T09:14:12.626Z,34
2023-03-29T09:19:13.144Z,33.9
2023-03-29T09:24:13.461Z,33.9
2023-03-29T09:29:13.946Z,33.8
2023-03-29T09:34:15.252Z,33.8
2023-03-29T09:39:16.160Z,33.8
2023-03-29T09:44:28.101Z,33.7
2023-03-29T09:49:30.697Z,33.7
2023-03-29T09:54:31.857Z,33.7
2023-03-29T09:59:32.200Z,33.7
2023-03-29T10:04:32.495Z,33.7
2023-03-29T10:09:32.853Z,33.6
2023-03-29T10:14:33.128Z,33.6
2023-03-29T10:19:33.540Z,33.1
2023-03-29T10:24:33.842Z,32.3
2023-03-29T10:29:34.038Z,32.2
2023-03-29T10:34:34.304Z,32.2
2023-03-29T10:39:34.542Z,32.1
2023-03-29T10:44:34.805Z,32.1
2023-03-29T10:49:35.041Z,32.1
2023-03-29T10:54:35.264Z,32.1
2023-03-29T10:59:35.515Z,32.1
2023-03-29T11:04:37.398Z,32.1
2023-03-29T11:09:37.681Z,32
2023-03-29T11:14:37.999Z,32
2023-03-29T11:19:38.230Z,32
2023-03-29T11:24:38.572Z,32
2023-03-29T11:29:38.754Z,31.9
2023-03-29T11:34:38.974Z,31.9
2023-03-29T11:39:39.210Z,31.9
2023-03-29T11:44:39.455Z,31.9
2023-03-29T11:49:39.634Z,31.9
2023-03-29T11:54:39.859Z,31.9
2023-03-29T11:59:40.089Z,31.9
2023-03-29T12:04:40.510Z,31.8
2023-03-29T12:09:41.624Z,31.8
2023-03-29T12:14:42.098Z,31.8
2023-03-29T12:19:43.766Z,31.8
2023-03-29T12:24:44.152Z,31.8
2023-03-29T12:29:44.340Z,31.8
2023-03-29T12:34:44.617Z,31.7
2023-03-29T12:39:44.987Z,31.7
2023-03-29T12:44:46.946Z,31.7
2023-03-29T12:49:47.371Z,31.7
2023-03-29T12:54:47.589Z,31.6
2023-03-29T12:59:47.808Z,31.6
2023-03-29T13:04:48.023Z,31.6
2023-03-29T13:09:48.222Z,31.4
2023-03-29T13:14:50.075Z,31.4
2023-03-29T13:19:51.934Z,31.3
2023-03-29T13:24:53.804Z,31.3
2023-03-29T13:29:55.673Z,31.3
2023-03-29T13:34:55.870Z,31.2
2023-03-29T13:39:56.132Z,31.2
2023-03-29T13:44:58.004Z,31.2
2023-03-29T13:49:58.352Z,31.2
2023-03-29T13:55:00.381Z,31.2
2023-03-29T14:00:02.393Z,31.2
2023-03-29T14:05:04.349Z,31.2
2023-03-29T14:10:06.179Z,31.2
2023-03-29T14:15:08.998Z,31.1
2023-03-29T14:20:10.070Z,31.1
2023-03-29T14:25:11.974Z,31.1
2023-03-29T14:30:14.160Z,31.1
2023-03-29T14:35:15.946Z,31.1
2023-03-29T14:40:18.208Z,31.1
2023-03-29T14:45:20.028Z,31.1
2023-03-29T14:50:21.867Z,31.1
2023-03-29T14:55:23.981Z,31
2023-03-29T15:00:28.888Z,31
2023-03-29T15:05:30.759Z,31
2023-03-29T15:10:32.652Z,31
2023-03-29T15:15:32.936Z,30.9
2023-03-29T15:20:33.190Z,30.9
2023-03-29T15:25:33.379Z,32.1
2023-03-29T15:30:33.691Z,35.1
2023-03-29T15:35:35.126Z,37.6
2023-03-29T15:40:35.631Z,40.3
2023-03-29T15:45:36.318Z,41.6
2023-03-29T15:50:36.769Z,41.7
2023-03-29T15:55:38.098Z,42.7
2023-03-29T16:00:38.647Z,43.5
2023-03-29T16:05:39.259Z,44
2023-03-29T16:10:39.879Z,44.7
2023-03-29T16:15:40.576Z,45.1
2023-03-29T16:20:41.632Z,45.1
2023-03-29T16:25:42.296Z,45.1
2023-03-29T16:30:42.930Z,45.1
2023-03-29T16:35:43.575Z,45
2023-03-29T16:40:44.265Z,45
2023-03-29T16:45:44.904Z,44.8
2023-03-29T16:50:45.759Z,44.2
2023-03-29T16:55:47.279Z,42.7
2023-03-29T17:00:48.510Z,41.6
2023-03-29T17:05:49.761Z,41.3
2023-03-29T17:10:50.535Z,41.1
2023-03-29T17:15:51.100Z,40.9
2023-03-29T17:20:51.609Z,40.8
2023-03-29T17:25:52.360Z,40.6
2023-03-29T17:30:53.131Z,40.4
2023-03-29T17:35:53.891Z,40.3
2023-03-29T17:40:54.603Z,40.1
2023-03-29T17:45:55.115Z,40
2023-03-29T17:50:55.736Z,39.9
2023-03-29T17:55:56.485Z,38.7
2023-03-29T18:00:56.958Z,39.7
2023-03-29T18:05:57.561Z,42.2
2023-03-29T18:10:58.071Z,42.2
2023-03-29T18:15:58.785Z,41.9
2023-03-29T18:20:59.459Z,41.8
2023-03-29T18:26:00.180Z,42.6
2023-03-29T18:31:00.878Z,42.7
2023-03-29T18:36:01.678Z,42.7
2023-03-29T18:41:02.625Z,42.7
2023-03-29T18:46:03.436Z,42.6
2023-03-29T18:51:05.607Z,42.6
2023-03-29T18:56:06.428Z,42.6
2023-03-29T19:01:07.190Z,42.6
2023-03-29T19:06:07.905Z,42.5
2023-03-29T19:11:08.548Z,42.5
2023-03-29T19:16:09.213Z,42.5
2023-03-29T19:21:09.991Z,42.5
2023-03-29T19:26:10.711Z,42.4
2023-03-29T19:31:11.377Z,42.4
2023-03-29T19:36:12.039Z,42.4
2023-03-29T19:41:12.618Z,42.4
2023-03-29T19:46:13.186Z,42.3
2023-03-29T19:51:13.712Z,42.3
2023-03-29T19:56:17.931Z,42.2
2023-03-29T20:01:18.484Z,42.2
2023-03-29T20:06:19.065Z,42.1
2023-03-29T20:11:19.622Z,42.1
2023-03-29T20:16:20.135Z,42.1
2023-03-29T20:21:20.888Z,42.1
2023-03-29T20:26:21.567Z,42
2023-03-29T20:31:22.170Z,42
2023-03-29T20:36:23.032Z,41.9
2023-03-29T20:41:23.746Z,41.9
2023-03-29T20:46:24.396Z,41.9
2023-03-29T20:51:24.925Z,41.8
2023-03-29T20:56:25.417Z,41.8
2023-03-29T21:01:25.908Z,41.7
2023-03-29T21:06:26.469Z,41.7
2023-03-29T21:11:26.957Z,41.7
2023-03-29T21:16:27.470Z,41.7
2023-03-29T21:21:28.144Z,41.6
2023-03-29T21:26:28.614Z,41.6
2023-03-29T21:31:29.112Z,41.6
2023-03-29T21:36:29.597Z,41.5
2023-03-29T21:41:30.129Z,41.5
2023-03-29T21:46:30.649Z,41.4
2023-03-29T21:51:31.144Z,41.4
2023-03-29T21:56:31.576Z,41.4
2023-03-29T22:01:32.124Z,41.4
2023-03-29T22:06:33.798Z,41.3
2023-03-29T22:11:34.238Z,41.2
2023-03-29T22:16:34.761Z,41.2
2023-03-29T22:21:35.230Z,41.2
2023-03-29T22:26:35.722Z,41.1
2023-03-29T22:31:36.214Z,41.1
2023-03-29T22:36:36.764Z,41.1
2023-03-29T22:41:37.204Z,41
2023-03-29T22:46:37.713Z,41
2023-03-29T22:51:38.377Z,40.9
2023-03-29T22:56:38.864Z,40.9
2023-03-29T23:01:39.452Z,40.9
2023-03-29T23:06:40.028Z,40.8
2023-03-29T23:11:40.546Z,40.8
2023-03-29T23:16:41.067Z,40.8
2023-03-29T23:21:42.494Z,40.7
2023-03-29T23:26:43.155Z,40.7
2023-03-29T23:31:43.670Z,40.6
2023-03-29T23:36:44.308Z,40.6
2023-03-29T23:41:44.849Z,40.6
2023-03-29T23:46:45.406Z,40.5
2023-03-29T23:51:45.871Z,40.4
2023-03-29T23:56:46.417Z,40.4
